Time;durP1;ratioP1;P1;durP2;ratioP2;P2;SDS_P1;SDS_P2;PMS_P1;PMS_P2;Temp;Humidity;BMP_temperature;BMP_pressure;BME280_temperature;BME280_humidity;BME280_pressure;Samples;Min_cycle;Max_cycle;Signal;HPM_P1;HPM_P2
2022/12/29 00:01:27;;;;;;;64.80;49.15;;;15.20;71.40;;;;;;4907562;28;91775;-46
2022/12/29 00:03:53;;;;;;;64.70;49.25;;;15.20;71.40;;;;;;4899603;28;89819;-50
2022/12/29 00:06:19;;;;;;;64.60;49.40;;;15.20;71.30;;;;;;4903835;28;89782;-52
2022/12/29 00:08:44;;;;;;;64.60;49.17;;;15.20;71.30;;;;;;4909756;28;92379;-50
2022/12/29 00:11:12;;;;;;;64.28;49.17;;;15.20;71.30;;;;;;4916212;28;91066;-48
2022/12/29 00:16:23;;;;;;;64.63;49.00;;;15.20;71.30;;;;;;4900275;28;92566;-48
2022/12/29 00:18:49;;;;;;;65.15;49.42;;;15.20;71.30;;;;;;4901734;28;94336;-48
2022/12/29 00:35:36;;;;;;;64.18;49.17;;;15.20;71.30;;;;;;4909464;28;93420;-49
2022/12/29 00:46:17;;;;;;;64.70;49.00;;;15.20;71.30;;;;;;4909308;28;91835;-50
2022/12/29 00:51:28;;;;;;;64.57;48.78;;;15.20;71.40;;;;;;4909484;28;90417;-49
2022/12/29 00:53:53;;;;;;;64.90;49.03;;;15.20;71.40;;;;;;4902186;28;92785;-49
2022/12/29 00:56:19;;;;;;;64.45;48.70;;;15.10;71.40;;;;;;4909259;28;94063;-51
2022/12/29 00:58:44;;;;;;;64.65;49.05;;;15.20;71.40;;;;;;4909063;28;90622;-47
2022/12/29 01:01:10;;;;;;;64.38;49.03;;;15.10;71.40;;;;;;4906230;28;90303;-52
2022/12/29 01:03:37;;;;;;;64.53;49.05;;;15.10;71.40;;;;;;4912231;28;92434;-49
2022/12/29 01:06:05;;;;;;;64.50;49.10;;;15.10;71.30;;;;;;4915987;28;90877;-52
2022/12/29 01:08:31;;;;;;;65.10;49.22;;;15.10;71.30;;;;;;4904916;28;89629;-49
2022/12/29 01:11:05;;;;;;;63.92;48.95;;;15.20;71.30;;;;;;4907070;28;91486;-49
2022/12/29 01:13:31;;;;;;;64.38;49.05;;;15.10;71.20;;;;;;4902412;28;90075;-51
2022/12/29 01:15:57;;;;;;;64.97;49.33;;;15.10;71.30;;;;;;4903905;28;90655;-53
2022/12/29 01:18:23;;;;;;;65.25;49.03;;;15.20;71.30;;;;;;4901879;28;91284;-47
2022/12/29 01:20:49;;;;;;;64.82;49.05;;;15.20;71.30;;;;;;4906837;28;89399;-54
2022/12/29 01:23:16;;;;;;;64.72;49.15;;;15.20;71.30;;;;;;4916516;28;89622;-49
2022/12/29 01:25:41;;;;;;;64.80;49.13;;;15.20;71.30;;;;;;4912669;28;89993;-51
2022/12/29 01:28:08;;;;;;;64.90;49.03;;;15.10;71.30;;;;;;4909509;28;92374;-46
2022/12/29 01:30:34;;;;;;;65.88;49.30;;;15.10;71.30;;;;;;4907266;28;89814;-50
2022/12/29 01:33:00;;;;;;;64.65;49.15;;;15.10;71.30;;;;;;4929611;28;90934;-49
2022/12/29 01:35:26;;;;;;;65.15;49.00;;;15.10;71.40;;;;;;4910131;28;90572;-49
2022/12/29 01:37:52;;;;;;;64.90;49.20;;;15.10;71.40;;;;;;4909260;28;93037;-48
2022/12/29 01:40:18;;;;;;;65.18;49.15;;;15.10;71.50;;;;;;4910102;28;91287;-51
2022/12/29 01:42:44;;;;;;;66.45;49.17;;;15.10;71.40;;;;;;4909623;28;90417;-49
2022/12/29 01:45:14;;;;;;;64.22;49.22;;;15.10;71.40;;;;;;4909076;28;90604;-49
2022/12/29 01:47:43;;;;;;;64.18;48.85;;;15.10;71.40;;;;;;4910346;28;89976;-50
2022/12/29 01:50:11;;;;;;;64.35;49.08;;;15.10;71.40;;;;;;4903367;28;89860;-49
2022/12/29 01:52:42;;;;;;;66.07;48.78;;;15.10;71.40;;;;;;4913658;28;91122;-47
2022/12/29 01:55:10;;;;;;;64.68;49.08;;;15.10;71.50;;;;;;4909705;28;92232;-49
2022/12/29 01:57:40;;;;;;;64.35;49.13;;;15.10;71.50;;;;;;4911199;28;90057;-50
2022/12/29 02:00:11;;;;;;;64.60;49.13;;;15.10;71.50;;;;;;4908793;28;90066;-48
2022/12/29 02:02:37;;;;;;;;;;;15.00;71.40;;;;;;4915232;28;90407;-48
2022/12/29 02:05:10;;;;;;;65.53;49.17;;;15.10;71.60;;;;;;4909315;28;90299;-49
2022/12/29 02:07:37;;;;;;;63.70;48.65;;;15.00;71.60;;;;;;4907166;28;91623;-51
2022/12/29 02:10:03;;;;;;;65.20;48.83;;;15.00;71.50;;;;;;4904066;28;90631;-49
2022/12/29 02:12:29;;;;;;;64.32;49.00;;;15.00;71.50;;;;;;4911714;28;95484;-50
2022/12/29 02:14:59;;;;;;;65.40;49.08;;;15.00;71.50;;;;;;4894113;28;90493;-46
2022/12/29 02:17:40;;;;;;;64.70;48.78;;;15.00;71.50;;;;;;4900247;28;90627;-48
2022/12/29 02:20:27;;;;;;;64.30;48.97;;;15.00;71.60;;;;;;4907178;28;92019;-51
2022/12/29 02:23:30;;;;;;;65.03;49.30;;;15.00;71.70;;;;;;4912875;28;91466;-49
2022/12/29 02:26:08;;;;;;;64.05;48.63;;;15.00;71.70;;;;;;4898268;28;94552;-53
2022/12/29 02:29:08;;;;;;;64.93;48.85;;;15.00;71.60;;;;;;4903524;28;91392;-51
2022/12/29 02:31:49;;;;;;;63.70;48.83;;;15.00;71.60;;;;;;4907247;28;91842;-50
2022/12/29 02:34:29;;;;;;;66.15;49.22;;;15.00;71.70;;;;;;4907003;28;90276;-49
2022/12/29 02:37:08;;;;;;;63.50;49.10;;;15.00;71.70;;;;;;4907424;28;91370;-46
2022/12/29 02:39:46;;;;;;;64.03;48.83;;;15.00;71.80;;;;;;4904930;28;93216;-48
2022/12/29 02:42:37;;;;;;;63.92;48.72;;;15.00;71.70;;;;;;4913815;28;90188;-48
2022/12/29 02:45:10;;;;;;;65.85;48.85;;;15.00;71.70;;;;;;4913562;28;92948;-50
2022/12/29 02:47:53;;;;;;;63.95;48.75;;;15.00;71.60;;;;;;4902403;28;90773;-51
2022/12/29 02:50:33;;;;;;;65.95;48.83;;;14.90;71.60;;;;;;4901240;28;92361;-51
2022/12/29 02:53:01;;;;;;;65.32;49.22;;;14.90;71.60;;;;;;4905123;28;91915;-48
2022/12/29 02:55:27;;;;;;;64.43;48.90;;;14.90;71.70;;;;;;4901790;28;89870;-49
2022/12/29 02:58:22;;;;;;;68.03;49.25;;;14.90;71.70;;;;;;4913210;28;92256;-47
2022/12/29 03:01:02;;;;;;;63.95;48.75;;;14.90;71.70;;;;;;4905767;28;91628;-49
2022/12/29 03:03:44;;;;;;;64.25;49.10;;;14.90;71.80;;;;;;4912371;28;90330;-51
2022/12/29 03:06:31;;;;;;;64.90;48.85;;;14.90;71.80;;;;;;4910161;28;90530;-46
2022/12/29 03:09:11;;;;;;;64.82;48.95;;;14.80;72.20;;;;;;4906058;28;90151;-49
2022/12/29 03:12:08;;;;;;;64.07;49.30;;;14.90;71.80;;;;;;4898752;28;90977;-49
2022/12/29 03:18:10;;;;;;;64.10;48.55;;;14.90;71.80;;;;;;4910005;28;90484;-49
2022/12/29 03:21:08;;;;;;;65.00;48.75;;;14.90;71.80;;;;;;4902745;28;91894;-50
2022/12/29 03:23:37;;;;;;;66.03;48.95;;;14.80;71.70;;;;;;4887320;28;93049;-49
2022/12/29 03:26:07;;;;;;;64.18;48.83;;;14.90;71.70;;;;;;4901674;28;90158;-50
2022/12/29 03:28:41;;;;;;;63.88;48.78;;;14.80;71.70;;;;;;4908648;28;91726;-50
2022/12/29 03:31:08;;;;;;;64.40;48.72;;;14.90;71.70;;;;;;4903081;28;92981;-49
2022/12/29 03:33:37;;;;;;;66.57;49.05;;;14.80;71.70;;;;;;4903409;28;91048;-49
2022/12/29 03:36:09;;;;;;;64.70;48.90;;;14.90;71.70;;;;;;4907494;28;91125;-53
2022/12/29 03:38:43;;;;;;;63.78;48.67;;;14.90;71.70;;;;;;4907082;28;92347;-50
2022/12/29 03:41:14;;;;;;;63.70;48.78;;;14.80;71.70;;;;;;4910853;28;92161;-51
2022/12/29 03:43:40;;;;;;;64.85;48.78;;;14.80;71.60;;;;;;4896849;28;92001;-50
2022/12/29 03:46:06;;;;;;;63.60;48.85;;;14.80;71.60;;;;;;4909138;28;91106;-49
2022/12/29 03:48:32;;;;;;;64.57;48.70;;;14.80;71.70;;;;;;4910100;28;90390;-49
2022/12/29 03:50:58;;;;;;;64.43;48.75;;;14.80;71.70;;;;;;4904349;28;91738;-49
2022/12/29 03:53:24;;;;;;;64.15;48.65;;;14.80;71.80;;;;;;4907151;28;94211;-52
2022/12/29 03:55:55;;;;;;;64.65;49.30;;;14.80;71.80;;;;;;4915332;28;89698;-50
2022/12/29 03:58:21;;;;;;;63.35;48.47;;;14.80;71.80;;;;;;4907781;28;93503;-51
2022/12/29 04:00:47;;;;;;;64.30;48.75;;;14.80;71.70;;;;;;4899705;28;93249;-49
2022/12/29 04:03:12;;;;;;;64.45;49.10;;;14.80;71.70;;;;;;4904824;28;90907;-50
2022/12/29 04:05:38;;;;;;;64.22;48.53;;;14.70;71.70;;;;;;4913928;28;90000;-48
2022/12/29 04:08:04;;;;;;;63.58;48.83;;;14.70;71.70;;;;;;4899401;28;91866;-52
2022/12/29 04:10:29;;;;;;;64.30;48.80;;;14.80;71.80;;;;;;4899226;28;90406;-53
2022/12/29 04:12:55;;;;;;;64.65;48.65;;;14.70;71.70;;;;;;4907080;28;89795;-47
2022/12/29 04:15:20;;;;;;;65.20;48.80;;;14.70;71.70;;;;;;4916967;28;89791;-51
2022/12/29 04:17:46;;;;;;;66.20;48.90;;;14.80;71.70;;;;;;4905165;28;90174;-53
2022/12/29 04:23:03;;;;;;;64.10;48.97;;;14.70;71.60;;;;;;4907309;28;89790;-52
2022/12/29 04:25:31;;;;;;;64.15;48.65;;;14.70;71.80;;;;;;4905649;28;89982;-47
2022/12/29 04:27:56;;;;;;;63.67;48.65;;;14.70;71.70;;;;;;4896211;28;95096;-53
2022/12/29 04:30:22;;;;;;;65.28;49.33;;;14.80;71.70;;;;;;4905331;28;91371;-52
2022/12/29 04:32:48;;;;;;;64.97;48.97;;;14.80;71.70;;;;;;4906340;28;92847;-50
2022/12/29 04:35:13;;;;;;;63.88;48.67;;;14.70;71.60;;;;;;4912309;28;91353;-51
2022/12/29 04:37:39;;;;;;;64.35;49.10;;;14.70;71.70;;;;;;4906662;28;90309;-51
2022/12/29 04:40:05;;;;;;;64.25;48.95;;;14.70;71.70;;;;;;4901728;28;93703;-53
2022/12/29 04:42:31;;;;;;;64.15;48.75;;;14.70;71.70;;;;;;4903313;28;91870;-49
2022/12/29 04:44:57;;;;;;;64.70;48.67;;;14.70;71.90;;;;;;4906485;28;89331;-50
2022/12/29 04:47:22;;;;;;;64.03;49.00;;;14.70;71.60;;;;;;4899268;28;90347;-52
2022/12/29 04:49:48;;;;;;;64.28;48.92;;;14.70;71.60;;;;;;4914174;28;91500;-47
2022/12/29 04:52:14;;;;;;;64.45;48.72;;;14.70;71.80;;;;;;4917068;28;90968;-52
2022/12/29 04:54:39;;;;;;;63.72;48.80;;;14.70;71.70;;;;;;4905698;28;90569;-52
2022/12/29 04:57:05;;;;;;;64.00;48.85;;;14.70;71.60;;;;;;4904074;28;94410;-48
2022/12/29 04:59:30;;;;;;;65.38;48.90;;;14.70;71.60;;;;;;4904455;28;91657;-52
2022/12/29 05:01:56;;;;;;;64.30;48.97;;;14.70;71.60;;;;;;4910869;28;90152;-49
2022/12/29 05:04:22;;;;;;;64.32;48.95;;;14.70;72.30;;;;;;4906764;28;89879;-50
2022/12/29 05:06:48;;;;;;;66.57;49.10;;;14.70;71.60;;;;;;4908863;28;90010;-50
2022/12/29 05:09:13;;;;;;;63.78;48.75;;;14.70;71.60;;;;;;4913037;28;89594;-51
2022/12/29 05:11:39;;;;;;;64.65;48.83;;;14.70;71.60;;;;;;4917642;28;90333;-50
2022/12/29 05:14:05;;;;;;;64.40;48.72;;;14.70;71.60;;;;;;4908383;28;90326;-50
2022/12/29 05:16:30;;;;;;;63.90;48.78;;;14.70;71.60;;;;;;4909050;28;91996;-50
2022/12/29 05:18:56;;;;;;;64.47;48.65;;;14.70;71.60;;;;;;4908235;28;90387;-50
2022/12/29 05:21:22;;;;;;;64.15;48.85;;;14.70;71.60;;;;;;4917522;28;90153;-49
2022/12/29 05:23:47;;;;;;;65.38;48.78;;;14.70;71.60;;;;;;4904899;28;89799;-47
2022/12/29 05:26:13;;;;;;;63.88;48.58;;;14.70;71.60;;;;;;4908493;28;90327;-51
2022/12/29 05:28:39;;;;;;;65.20;48.80;;;14.70;71.50;;;;;;4914086;28;90718;-52
2022/12/29 05:31:04;;;;;;;63.67;48.67;;;14.70;71.50;;;;;;4910404;28;90205;-49
2022/12/29 05:33:30;;;;;;;65.53;49.05;;;14.70;71.60;;;;;;4905750;28;88822;-47
2022/12/29 05:35:56;;;;;;;64.40;48.60;;;14.70;71.50;;;;;;4918453;28;93385;-46
2022/12/29 05:38:21;;;;;;;66.28;48.83;;;14.70;71.50;;;;;;4910894;28;92974;-49
2022/12/29 05:40:47;;;;;;;65.10;49.17;;;14.70;71.50;;;;;;4909043;28;93910;-51
2022/12/29 05:43:12;;;;;;;65.50;48.78;;;14.70;71.50;;;;;;4899884;28;89721;-52
2022/12/29 05:45:38;;;;;;;64.53;48.75;;;14.70;71.50;;;;;;4911559;28;90013;-52
2022/12/29 05:48:04;;;;;;;65.53;49.50;;;14.70;71.50;;;;;;4920134;28;90552;-50
2022/12/29 05:50:29;;;;;;;64.25;48.78;;;14.70;71.50;;;;;;4909400;28;92039;-51
2022/12/29 05:52:55;;;;;;;64.28;48.85;;;14.70;71.50;;;;;;4905636;28;90506;-52
2022/12/29 05:55:21;;;;;;;64.68;48.53;;;14.70;71.40;;;;;;4916208;28;91659;-52
2022/12/29 05:57:46;;;;;;;64.90;48.88;;;14.60;71.40;;;;;;4910229;28;92034;-52
2022/12/29 06:00:13;;;;;;;65.47;48.95;;;14.70;71.50;;;;;;4905819;28;90761;-48
2022/12/29 06:02:38;;;;;;;63.60;48.85;;;14.70;71.40;;;;;;4913731;28;89895;-49
2022/12/29 06:05:05;;;;;;;65.93;48.92;;;14.70;71.40;;;;;;4904825;28;91791;-48
2022/12/29 06:07:30;;;;;;;64.43;48.72;;;14.70;71.30;;;;;;4918036;28;91257;-51
2022/12/29 06:09:56;;;;;;;64.00;48.83;;;14.70;71.40;;;;;;4901493;28;94242;-50
2022/12/29 06:12:21;;;;;;;66.85;49.30;;;14.70;71.30;;;;;;4908760;28;93895;-52
2022/12/29 06:14:47;;;;;;;65.57;48.78;;;14.70;71.30;;;;;;4908401;28;91436;-49
2022/12/29 06:17:13;;;;;;;64.13;48.35;;;14.70;71.30;;;;;;4910881;28;90662;-48
2022/12/29 06:19:38;;;;;;;64.63;48.90;;;14.70;71.30;;;;;;4904976;28;90682;-47
2022/12/29 06:22:04;;;;;;;65.53;48.72;;;14.70;71.40;;;;;;4915393;28;89807;-49
2022/12/29 06:24:30;;;;;;;65.43;48.92;;;14.60;71.30;;;;;;4899386;28;91727;-49
2022/12/29 06:26:56;;;;;;;64.38;48.90;;;14.70;71.40;;;;;;4912841;28;92715;-50
2022/12/29 06:29:21;;;;;;;63.83;48.50;;;14.70;71.30;;;;;;4916774;28;90560;-52
2022/12/29 06:31:48;;;;;;;65.30;48.88;;;14.70;71.30;;;;;;4907290;28;93410;-49
2022/12/29 06:34:14;;;;;;;66.07;49.00;;;14.70;71.30;;;;;;4902890;28;90402;-50
2022/12/29 06:36:40;;;;;;;64.80;49.00;;;14.60;71.20;;;;;;4904036;28;89537;-45
2022/12/29 06:39:06;;;;;;;64.18;48.72;;;14.60;71.30;;;;;;4915957;28;92322;-49
2022/12/29 06:41:32;;;;;;;65.18;48.95;;;14.60;71.20;;;;;;4904593;28;91501;-49
2022/12/29 06:43:57;;;;;;;64.70;48.85;;;14.60;71.20;;;;;;4922108;28;90197;-48
2022/12/29 06:46:32;;;;;;;64.97;48.95;;;14.60;71.20;;;;;;4915059;28;90611;-50
2022/12/29 06:48:58;;;;;;;65.75;48.88;;;14.60;71.20;;;;;;4909591;28;93629;-52
2022/12/29 06:51:23;;;;;;;64.80;48.90;;;14.60;71.20;;;;;;4913654;28;89937;-50
2022/12/29 06:53:49;;;;;;;65.45;49.15;;;14.60;71.10;;;;;;4903705;28;91207;-51
2022/12/29 06:56:15;;;;;;;65.13;49.30;;;14.60;71.10;;;;;;4912049;28;92734;-49
2022/12/29 06:58:40;;;;;;;64.78;48.70;;;14.60;71.00;;;;;;4909436;28;90035;-48
2022/12/29 07:01:06;;;;;;;66.70;49.15;;;14.60;71.00;;;;;;4912451;28;89575;-52
2022/12/29 07:03:32;;;;;;;65.53;48.95;;;14.60;70.90;;;;;;4918662;28;90368;-50
2022/12/29 07:05:58;;;;;;;64.85;49.08;;;14.70;71.00;;;;;;4911779;28;95564;-50
2022/12/29 07:08:24;;;;;;;65.57;48.97;;;14.60;71.00;;;;;;4905044;28;89791;-49
2022/12/29 07:10:49;;;;;;;66.22;48.92;;;14.70;71.10;;;;;;4898702;28;94256;-50
2022/12/29 07:13:15;;;;;;;65.93;49.08;;;14.60;71.00;;;;;;4901938;28;90294;-47
2022/12/29 07:15:41;;;;;;;65.15;48.80;;;14.60;71.00;;;;;;4911988;28;89816;-51
2022/12/29 07:18:06;;;;;;;65.47;49.25;;;14.60;71.00;;;;;;4908120;28;95085;-50
2022/12/29 07:20:32;;;;;;;65.03;49.10;;;14.60;71.00;;;;;;4896687;28;93713;-45
2022/12/29 07:22:58;;;;;;;68.25;49.40;;;14.60;70.90;;;;;;4916031;28;92803;-49
2022/12/29 07:25:24;;;;;;;64.22;48.85;;;14.60;70.90;;;;;;4908154;28;89976;-46
2022/12/29 07:27:50;;;;;;;65.50;49.20;;;14.60;70.90;;;;;;4908917;28;89757;-51
2022/12/29 07:30:15;;;;;;;64.85;49.28;;;14.60;70.90;;;;;;4908416;28;89910;-47
2022/12/29 07:32:41;;;;;;;64.65;49.15;;;14.60;70.80;;;;;;4909348;28;89988;-49
2022/12/29 07:35:07;;;;;;;66.45;49.20;;;14.60;70.90;;;;;;4894392;28;92048;-49
2022/12/29 07:37:34;;;;;;;64.95;49.15;;;14.60;70.90;;;;;;4900779;28;90319;-49
2022/12/29 07:40:00;;;;;;;65.50;48.85;;;14.60;70.80;;;;;;4913936;28;90225;-51
2022/12/29 07:42:26;;;;;;;67.35;49.45;;;14.60;70.80;;;;;;4910896;28;91477;-50
2022/12/29 07:44:52;;;;;;;65.57;49.05;;;14.60;70.70;;;;;;4903313;28;98129;-46
2022/12/29 07:47:18;;;;;;;65.88;48.65;;;14.60;70.70;;;;;;4902577;28;89940;-48
2022/12/29 07:49:43;;;;;;;65.25;49.25;;;14.60;70.60;;;;;;4898751;28;90601;-48
2022/12/29 07:52:09;;;;;;;66.75;49.40;;;14.60;70.60;;;;;;4899320;28;91289;-51
2022/12/29 07:54:34;;;;;;;65.38;48.80;;;14.60;70.60;;;;;;4906174;28;91849;-49
2022/12/29 07:57:00;;;;;;;66.68;48.90;;;14.60;70.60;;;;;;4909066;28;92204;-51
2022/12/29 07:59:26;;;;;;;66.22;49.28;;;14.60;70.60;;;;;;4922102;28;88951;-51
2022/12/29 08:01:52;;;;;;;67.18;49.22;;;14.60;70.60;;;;;;4912852;28;91561;-49
2022/12/29 08:04:17;;;;;;;65.70;49.45;;;14.60;70.50;;;;;;4902575;28;93802;-50
2022/12/29 08:06:45;;;;;;;66.57;49.63;;;14.60;70.50;;;;;;4906690;28;93129;-49
2022/12/29 08:09:11;;;;;;;65.82;49.05;;;14.60;70.50;;;;;;4911332;28;90105;-49
2022/12/29 08:11:36;;;;;;;64.72;49.25;;;14.60;70.50;;;;;;4904716;28;90811;-48
2022/12/29 08:14:02;;;;;;;66.78;49.50;;;14.60;70.50;;;;;;4897789;28;91980;-47
2022/12/29 08:16:28;;;;;;;65.30;48.97;;;14.60;70.40;;;;;;4913524;28;91206;-51
2022/12/29 08:18:54;;;;;;;66.97;49.40;;;14.60;70.50;;;;;;4906205;28;91415;-50
2022/12/29 08:21:20;;;;;;;64.55;49.08;;;14.60;70.50;;;;;;4909251;28;90552;-47
2022/12/29 08:23:47;;;;;;;65.40;49.33;;;14.60;70.40;;;;;;4909396;28;92718;-50
2022/12/29 08:26:12;;;;;;;68.53;49.72;;;14.60;70.40;;;;;;4908312;28;95257;-51
2022/12/29 08:28:38;;;;;;;66.60;49.45;;;14.60;70.20;;;;;;4904775;28;93085;-52
2022/12/29 08:31:04;;;;;;;65.00;49.03;;;14.60;70.30;;;;;;4894292;28;91238;-49
2022/12/29 08:33:30;;;;;;;66.15;48.95;;;14.60;70.30;;;;;;4911623;28;90819;-50
2022/12/29 08:36:00;;;;;;;66.25;49.42;;;14.60;70.40;;;;;;4913736;28;90216;-50
2022/12/29 08:38:28;;;;;;;69.35;49.88;;;14.60;70.40;;;;;;4913865;28;90249;-50
2022/12/29 08:40:53;;;;;;;67.65;49.17;;;14.60;70.40;;;;;;4896675;28;91232;-50
2022/12/29 08:43:19;;;;;;;66.13;49.22;;;14.60;70.30;;;;;;4904309;28;91921;-49
2022/12/29 08:45:45;;;;;;;66.05;49.30;;;14.60;70.30;;;;;;4912710;28;89816;-48
2022/12/29 08:48:10;;;;;;;67.13;49.28;;;14.60;70.40;;;;;;4908400;28;89203;-47
2022/12/29 08:50:36;;;;;;;66.80;49.25;;;14.60;70.30;;;;;;4906418;28;89884;-48
2022/12/29 08:53:01;;;;;;;67.38;49.28;;;14.60;70.30;;;;;;4903492;28;89781;-49
2022/12/29 08:55:27;;;;;;;67.90;49.28;;;14.60;70.20;;;;;;4911650;28;91390;-49
2022/12/29 08:57:53;;;;;;;66.20;49.00;;;14.60;70.10;;;;;;4913255;28;90614;-46
2022/12/29 09:00:20;;;;;;;66.55;49.50;;;14.60;70.10;;;;;;4909284;28;89921;-48
2022/12/29 09:02:45;;;;;;;67.40;49.53;;;14.60;70.00;;;;;;4917521;28;90859;-49
2022/12/29 09:05:11;;;;;;;66.80;49.33;;;14.60;70.00;;;;;;4907901;28;90933;-48
2022/12/29 09:07:37;;;;;;;70.88;49.70;;;14.60;70.00;;;;;;4905054;28;90013;-51
2022/12/29 09:10:03;;;;;;;66.82;49.45;;;14.60;69.90;;;;;;4914020;28;92358;-50
2022/12/29 09:12:29;;;;;;;66.95;49.72;;;14.60;69.90;;;;;;4906271;28;90750;-50
2022/12/29 09:14:55;;;;;;;67.68;49.42;;;14.60;70.00;;;;;;4912089;28;90025;-49
2022/12/29 09:20:05;;;;;;;65.75;49.25;;;14.60;69.90;;;;;;4906076;28;91577;-50
2022/12/29 09:22:31;;;;;;;69.78;49.95;;;14.60;69.70;;;;;;4918333;28;92204;-48
2022/12/29 09:24:57;;;;;;;65.70;49.28;;;14.60;69.70;;;;;;4905183;28;90302;-52
2022/12/29 09:27:22;;;;;;;66.70;49.55;;;14.60;69.80;;;;;;4904106;28;91252;-49
2022/12/29 09:30:06;;;;;;;67.50;49.47;;;14.60;69.60;;;;;;4918340;28;94981;-49
2022/12/29 09:32:32;;;;;;;67.07;49.22;;;14.70;69.70;;;;;;4921884;28;90587;-50
2022/12/29 09:34:58;;;;;;;69.53;50.08;;;14.70;69.50;;;;;;4913942;28;90115;-48
2022/12/29 09:37:23;;;;;;;66.78;49.25;;;14.60;69.40;;;;;;4923152;28;93213;-48
2022/12/29 09:39:49;;;;;;;66.93;49.53;;;14.70;69.50;;;;;;4893915;28;91266;-49
2022/12/29 09:42:33;;;;;;;66.50;50.13;;;14.70;69.50;;;;;;4899165;28;94624;-46
2022/12/29 09:45:27;;;;;;;67.25;49.15;;;14.70;69.40;;;;;;4905343;28;92763;-48
2022/12/29 09:47:53;;;;;;;67.68;49.45;;;14.70;69.40;;;;;;4909857;28;91595;-49
2022/12/29 09:50:32;;;;;;;66.15;49.22;;;14.70;69.30;;;;;;4904038;28;91467;-50
2022/12/29 09:53:01;;;;;;;66.80;49.83;;;14.70;69.20;;;;;;4913419;28;89877;-49
2022/12/29 09:55:51;;;;;;;72.07;49.53;;;14.80;69.30;;;;;;4900546;28;92801;-49
2022/12/29 09:58:30;;;;;;;72.10;49.90;;;14.80;69.20;;;;;;4896948;28;91426;-47
2022/12/29 10:01:22;;;;;;;66.88;49.38;;;14.80;68.80;;;;;;4904929;28;91004;-53
2022/12/29 10:03:49;;;;;;;69.60;50.55;;;14.90;68.60;;;;;;4903737;28;89480;-48
2022/12/29 10:06:26;;;;;;;68.82;50.28;;;15.00;68.80;;;;;;4909189;28;95644;-48
2022/12/29 10:09:04;;;;;;;69.88;51.25;;;15.00;68.90;;;;;;4906873;28;90854;-53
2022/12/29 10:11:47;;;;;;;68.93;51.00;;;15.00;69.60;;;;;;4902518;28;90922;-51
2022/12/29 10:14:33;;;;;;;71.68;51.22;;;15.00;69.60;;;;;;4903169;28;95593;-48
2022/12/29 10:17:22;;;;;;;70.88;50.95;;;15.10;69.50;;;;;;4897222;28;89862;-49
2022/12/29 10:20:04;;;;;;;71.95;51.28;;;15.10;69.60;;;;;;4908894;28;90173;-49
2022/12/29 10:23:05;;;;;;;69.70;51.13;;;15.10;69.80;;;;;;4898158;28;90997;-51
2022/12/29 10:25:36;;;;;;;70.80;50.80;;;15.10;69.60;;;;;;4902598;28;94629;-51
2022/12/29 10:28:31;;;;;;;69.68;50.53;;;15.10;69.90;;;;;;4909944;28;89977;-52
2022/12/29 10:30:58;;;;;;;70.15;50.88;;;15.20;70.30;;;;;;4899587;28;90474;-47
2022/12/29 10:33:36;;;;;;;71.07;50.67;;;15.20;70.30;;;;;;4901647;28;90517;-49
2022/12/29 10:36:23;;;;;;;72.18;50.90;;;15.20;70.20;;;;;;4902531;28;90045;-50
2022/12/29 10:39:01;;;;;;;70.10;50.75;;;15.20;70.10;;;;;;4912100;28;91917;-48
2022/12/29 10:41:43;;;;;;;72.05;50.85;;;15.20;70.00;;;;;;4904911;28;90180;-52
2022/12/29 10:44:14;;;;;;;71.15;50.50;;;15.20;70.20;;;;;;4893304;28;90040;-52
2022/12/29 10:46:40;;;;;;;72.55;50.70;;;15.30;70.20;;;;;;4905983;28;89941;-47
2022/12/29 10:49:10;;;;;;;70.93;50.65;;;15.20;70.20;;;;;;4911067;28;89905;-47
2022/12/29 10:51:41;;;;;;;72.30;51.28;;;15.20;70.40;;;;;;4903690;28;91114;-45
2022/12/29 10:54:17;;;;;;;70.40;50.17;;;15.20;70.70;;;;;;4903959;28;91151;-49
2022/12/29 10:56:46;;;;;;;70.38;50.60;;;15.20;70.50;;;;;;4890809;28;89355;-47
2022/12/29 10:59:33;;;;;;;71.15;50.92;;;15.20;70.60;;;;;;4898699;28;90166;-46
2022/12/29 11:02:10;;;;;;;69.28;50.70;;;15.20;70.50;;;;;;4902339;28;90346;-48
2022/12/29 11:04:54;;;;;;;73.22;50.63;;;15.20;70.30;;;;;;4902886;28;94851;-47
2022/12/29 11:07:21;;;;;;;70.80;50.92;;;15.20;70.10;;;;;;4903385;28;90686;-49
2022/12/29 11:09:47;;;;;;;70.65;50.28;;;15.20;70.10;;;;;;4908128;28;91200;-46
2022/12/29 11:12:26;;;;;;;71.07;50.42;;;15.20;70.10;;;;;;4907436;28;89459;-46
2022/12/29 11:15:09;;;;;;;70.93;50.40;;;15.20;70.10;;;;;;4903741;28;95224;-49
2022/12/29 11:17:59;;;;;;;71.55;50.35;;;15.30;70.60;;;;;;4901336;28;91381;-45
2022/12/29 11:20:35;;;;;;;70.60;49.90;;;15.30;70.90;;;;;;4907095;28;89828;-52
2022/12/29 11:23:03;;;;;;;73.57;51.08;;;15.30;70.60;;;;;;4902819;28;89359;-46
2022/12/29 11:25:29;;;;;;;72.22;50.65;;;15.30;70.80;;;;;;4901455;28;90166;-50
2022/12/29 11:28:15;;;;;;;72.57;50.33;;;15.40;71.10;;;;;;4898670;28;91146;-48
2022/12/29 11:30:41;;;;;;;71.03;50.25;;;15.40;70.90;;;;;;4903961;28;91739;-49
2022/12/29 11:33:08;;;;;;;72.00;50.78;;;15.40;70.80;;;;;;4909042;28;90379;-45
2022/12/29 11:35:41;;;;;;;68.82;49.97;;;15.40;70.70;;;;;;4905663;28;90708;-47
2022/12/29 11:38:20;;;;;;;69.35;50.00;;;15.40;70.80;;;;;;4908703;28;99575;-47
2022/12/29 11:40:46;;;;;;;69.65;50.65;;;15.50;70.90;;;;;;4900030;28;90163;-48
2022/12/29 11:43:38;;;;;;;69.90;50.20;;;15.40;70.90;;;;;;4899786;28;92195;-49
2022/12/29 11:46:04;;;;;;;;;;;15.50;70.90;;;;;;4908636;28;90015;-48
2022/12/29 11:48:38;;;;;;;70.35;50.22;;;15.50;70.90;;;;;;4904225;28;90579;-48
2022/12/29 11:51:04;;;;;;;72.90;50.75;;;15.40;70.80;;;;;;4906888;28;89945;-47
2022/12/29 11:53:39;;;;;;;70.40;50.35;;;15.40;70.30;;;;;;4905724;28;90874;-46
2022/12/29 11:56:12;;;;;;;71.20;50.08;;;15.40;69.90;;;;;;4892374;28;91821;-47
2022/12/29 11:58:38;;;;;;;71.28;50.70;;;15.40;69.90;;;;;;4899785;28;91365;-47
2022/12/29 12:01:10;;;;;;;69.70;50.22;;;15.40;69.80;;;;;;4901955;28;90328;-46
2022/12/29 12:03:42;;;;;;;71.63;50.47;;;15.30;69.70;;;;;;4906231;28;90262;-46
2022/12/29 12:06:16;;;;;;;71.38;50.60;;;15.30;69.50;;;;;;4914841;28;89988;-47
2022/12/29 12:08:57;;;;;;;72.85;50.53;;;15.30;69.60;;;;;;4901016;28;92494;-48
2022/12/29 12:11:36;;;;;;;70.65;50.47;;;15.30;69.50;;;;;;4905407;28;90048;-46
2022/12/29 12:14:23;;;;;;;105.30;74.75;;;15.30;69.40;;;;;;4896263;28;91596;-48
2022/12/29 12:16:56;;;;;;;119.38;87.95;;;15.30;69.60;;;;;;4898667;28;92142;-47
2022/12/29 12:19:43;;;;;;;126.35;95.82;;;15.40;69.90;;;;;;4904471;28;92029;-46
2022/12/29 12:22:31;;;;;;;116.85;85.57;;;15.40;70.00;;;;;;4905607;28;90746;-48
2022/12/29 12:25:12;;;;;;;111.55;81.47;;;15.50;69.90;;;;;;4899920;28;90354;-47
2022/12/29 12:27:42;;;;;;;;;;;15.60;69.70;;;;;;4907577;28;93138;-46
2022/12/29 12:30:16;;;;;;;103.82;71.78;;;15.60;69.60;;;;;;4901032;28;92548;-45
2022/12/29 12:32:48;;;;;;;104.53;74.20;;;15.70;69.60;;;;;;4902997;28;90436;-47
2022/12/29 12:35:34;;;;;;;97.63;69.80;;;15.70;69.30;;;;;;4900067;28;90188;-49
2022/12/29 12:38:23;;;;;;;97.20;66.25;;;15.80;69.40;;;;;;4897114;28;93522;-47
2022/12/29 12:41:03;;;;;;;96.72;71.30;;;15.80;69.10;;;;;;4906922;28;89972;-46
2022/12/29 12:43:34;;;;;;;99.60;72.03;;;15.80;69.10;;;;;;4889878;28;93773;-47
2022/12/29 12:46:15;;;;;;;98.22;66.75;;;15.80;68.90;;;;;;4906096;28;90126;-46
2022/12/29 12:49:14;;;;;;;95.65;67.28;;;15.90;68.90;;;;;;4903030;28;92506;-46
2022/12/29 12:51:49;;;;;;;91.50;64.03;;;15.90;68.90;;;;;;4912811;28;90365;-46
2022/12/29 12:54:42;;;;;;;95.07;64.78;;;15.90;68.80;;;;;;4904571;28;89916;-47
2022/12/29 12:57:57;;;;;;;89.15;63.67;;;15.90;68.80;;;;;;4912993;28;90379;-47
2022/12/29 13:00:23;;;;;;;90.60;62.10;;;15.90;68.60;;;;;;4897895;28;89948;-47
2022/12/29 13:03:03;;;;;;;90.40;64.18;;;16.00;68.50;;;;;;4911516;28;90865;-47
2022/12/29 13:05:57;;;;;;;89.30;62.00;;;16.00;68.60;;;;;;4904465;28;90888;-48
2022/12/29 13:08:58;;;;;;;87.97;62.83;;;16.00;68.40;;;;;;4899089;28;89012;-46
2022/12/29 13:12:02;;;;;;;87.43;61.80;;;16.00;68.60;;;;;;4908639;28;90463;-45
2022/12/29 13:14:49;;;;;;;84.03;59.22;;;16.00;68.40;;;;;;4903300;28;94320;-46
2022/12/29 13:17:47;;;;;;;84.30;59.20;;;16.00;68.50;;;;;;4908671;28;91108;-47
2022/12/29 13:20:37;;;;;;;87.97;61.35;;;16.00;68.20;;;;;;4907475;28;90440;-46
2022/12/29 13:23:23;;;;;;;84.80;59.72;;;15.90;68.30;;;;;;4901473;28;94274;-45
2022/12/29 13:25:56;;;;;;;85.78;60.47;;;15.90;68.40;;;;;;4897722;28;90005;-47